sensor_id;sensor_type;location;lat;lon;timestamp;P1;P2;P0
47081;PMS5003;33066;49.296;14.470;2022-07-10T00:02:08;5;5;
47081;PMS5003;33066;49.296;14.470;2022-07-10T00:04:32;4;4;
47081;PMS5003;33066;49.296;14.470;2022-07-10T00:06:57;8;7;
47081;PMS5003;33066;49.296;14.470;2022-07-10T00:09:23;8;7;
47081;PMS5003;33066;49.296;14.470;2022-07-10T00:11:48;8;8;
47081;PMS5003;33066;49.296;14.470;2022-07-10T00:14:13;7;7;
47081;PMS5003;33066;49.296;14.470;2022-07-10T00:16:38;5;5;
47081;PMS5003;33066;49.296;14.470;2022-07-10T00:19:04;7;7;
47081;PMS5003;33066;49.296;14.470;2022-07-10T00:21:29;6;6;
47081;PMS5003;33066;49.296;14.470;2022-07-10T00:23:54;3;3;
47081;PMS5003;33066;49.296;14.470;2022-07-10T00:26:19;5;5;
47081;PMS5003;33066;49.296;14.470;2022-07-10T00:28:44;6;6;
47081;PMS5003;33066;49.296;14.470;2022-07-10T00:31:09;6;6;
47081;PMS5003;33066;49.296;14.470;2022-07-10T00:33:34;5;5;
47081;PMS5003;33066;49.296;14.470;2022-07-10T00:36:00;5;5;
47081;PMS5003;33066;49.296;14.470;2022-07-10T00:38:26;5;5;
47081;PMS5003;33066;49.296;14.470;2022-07-10T00:40:51;4;4;
47081;PMS5003;33066;49.296;14.470;2022-07-10T00:43:16;7;6;
47081;PMS5003;33066;49.296;14.470;2022-07-10T00:45:41;5;5;
47081;PMS5003;33066;49.296;14.470;2022-07-10T00:48:06;6;6;
47081;PMS5003;33066;49.296;14.470;2022-07-10T00:50:33;5;5;
47081;PMS5003;33066;49.296;14.470;2022-07-10T00:52:56;5;5;
47081;PMS5003;33066;49.296;14.470;2022-07-10T00:55:22;5;5;
47081;PMS5003;33066;49.296;14.470;2022-07-10T00:57:47;6;4;
47081;PMS5003;33066;49.296;14.470;2022-07-10T01:00:12;7;5;
47081;PMS5003;33066;49.296;14.470;2022-07-10T01:02:40;5;4;
47081;PMS5003;33066;49.296;14.470;2022-07-10T01:05:02;6;6;
47081;PMS5003;33066;49.296;14.470;2022-07-10T01:07:29;6;5;
47081;PMS5003;33066;49.296;14.470;2022-07-10T01:09:52;11;11;
47081;PMS5003;33066;49.296;14.470;2022-07-10T01:12:19;5;5;
47081;PMS5003;33066;49.296;14.470;2022-07-10T01:14:43;5;5;
47081;PMS5003;33066;49.296;14.470;2022-07-10T01:17:08;8;8;
47081;PMS5003;33066;49.296;14.470;2022-07-10T01:19:34;5;5;
47081;PMS5003;33066;49.296;14.470;2022-07-10T01:21:59;7;6;
47081;PMS5003;33066;49.296;14.470;2022-07-10T01:24:24;7;6;
47081;PMS5003;33066;49.296;14.470;2022-07-10T01:26:50;4;4;
47081;PMS5003;33066;49.296;14.470;2022-07-10T01:29:15;6;5;
47081;PMS5003;33066;49.296;14.470;2022-07-10T01:31:40;5;5;
47081;PMS5003;33066;49.296;14.470;2022-07-10T01:34:06;8;5;
47081;PMS5003;33066;49.296;14.470;2022-07-10T01:36:31;8;6;
47081;PMS5003;33066;49.296;14.470;2022-07-10T01:38:57;6;6;
47081;PMS5003;33066;49.296;14.470;2022-07-10T01:41:21;8;7;
47081;PMS5003;33066;49.296;14.470;2022-07-10T01:43:46;6;6;
47081;PMS5003;33066;49.296;14.470;2022-07-10T01:46:12;7;7;
47081;PMS5003;33066;49.296;14.470;2022-07-10T01:48:37;6;4;
47081;PMS5003;33066;49.296;14.470;2022-07-10T01:51:02;6;5;
47081;PMS5003;33066;49.296;14.470;2022-07-10T01:53:27;6;6;
47081;PMS5003;33066;49.296;14.470;2022-07-10T01:55:52;5;5;
47081;PMS5003;33066;49.296;14.470;2022-07-10T01:58:18;12;10;
47081;PMS5003;33066;49.296;14.470;2022-07-10T02:00:43;7;4;
47081;PMS5003;33066;49.296;14.470;2022-07-10T02:03:09;8;6;
47081;PMS5003;33066;49.296;14.470;2022-07-10T02:05:34;7;6;
47081;PMS5003;33066;49.296;14.470;2022-07-10T02:07:59;8;7;
47081;PMS5003;33066;49.296;14.470;2022-07-10T02:10:24;6;5;
47081;PMS5003;33066;49.296;14.470;2022-07-10T02:12:49;4;4;
47081;PMS5003;33066;49.296;14.470;2022-07-10T02:15:14;4;4;
47081;PMS5003;33066;49.296;14.470;2022-07-10T02:17:39;3;3;
47081;PMS5003;33066;49.296;14.470;2022-07-10T02:20:06;4;4;
47081;PMS5003;33066;49.296;14.470;2022-07-10T02:22:30;4;4;
47081;PMS5003;33066;49.296;14.470;2022-07-10T02:24:55;7;4;
47081;PMS5003;33066;49.296;14.470;2022-07-10T02:27:20;5;3;
47081;PMS5003;33066;49.296;14.470;2022-07-10T02:29:45;6;3;
47081;PMS5003;33066;49.296;14.470;2022-07-10T02:32:11;4;4;
47081;PMS5003;33066;49.296;14.470;2022-07-10T02:34:36;3;3;
47081;PMS5003;33066;49.296;14.470;2022-07-10T02:37:01;4;4;
47081;PMS5003;33066;49.296;14.470;2022-07-10T02:39:26;5;5;
47081;PMS5003;33066;49.296;14.470;2022-07-10T02:41:51;4;4;
47081;PMS5003;33066;49.296;14.470;2022-07-10T02:44:17;6;5;
47081;PMS5003;33066;49.296;14.470;2022-07-10T02:46:42;2;2;
47081;PMS5003;33066;49.296;14.470;2022-07-10T02:49:07;3;3;
47081;PMS5003;33066;49.296;14.470;2022-07-10T02:51:32;7;6;
47081;PMS5003;33066;49.296;14.470;2022-07-10T02:53:57;7;6;
47081;PMS5003;33066;49.296;14.470;2022-07-10T02:56:22;3;3;
47081;PMS5003;33066;49.296;14.470;2022-07-10T02:58:47;4;4;
47081;PMS5003;33066;49.296;14.470;2022-07-10T03:01:12;9;5;
47081;PMS5003;33066;49.296;14.470;2022-07-10T03:03:37;7;6;
47081;PMS5003;33066;49.296;14.470;2022-07-10T03:06:03;5;5;
47081;PMS5003;33066;49.296;14.470;2022-07-10T03:08:29;5;3;
47081;PMS5003;33066;49.296;14.470;2022-07-10T03:13:01;5;5;
47081;PMS5003;33066;49.296;14.470;2022-07-10T03:15:24;4;4;
47081;PMS5003;33066;49.296;14.470;2022-07-10T03:17:50;8;7;
47081;PMS5003;33066;49.296;14.470;2022-07-10T03:20:15;5;5;
47081;PMS5003;33066;49.296;14.470;2022-07-10T03:22:40;5;5;
47081;PMS5003;33066;49.296;14.470;2022-07-10T03:25:06;6;5;
47081;PMS5003;33066;49.296;14.470;2022-07-10T03:27:31;5;5;
47081;PMS5003;33066;49.296;14.470;2022-07-10T03:29:58;5;4;
47081;PMS5003;33066;49.296;14.470;2022-07-10T03:32:23;6;5;
47081;PMS5003;33066;49.296;14.470;2022-07-10T03:34:46;4;4;
47081;PMS5003;33066;49.296;14.470;2022-07-10T03:37:13;5;5;
47081;PMS5003;33066;49.296;14.470;2022-07-10T03:39:37;8;6;
47081;PMS5003;33066;49.296;14.470;2022-07-10T03:42:04;6;6;
47081;PMS5003;33066;49.296;14.470;2022-07-10T03:44:27;4;4;
47081;PMS5003;33066;49.296;14.470;2022-07-10T03:46:53;5;5;
47081;PMS5003;33066;49.296;14.470;2022-07-10T03:49:17;5;5;
47081;PMS5003;33066;49.296;14.470;2022-07-10T03:51:42;7;6;
47081;PMS5003;33066;49.296;14.470;2022-07-10T03:54:07;6;4;
47081;PMS5003;33066;49.296;14.470;2022-07-10T03:56:33;6;6;
47081;PMS5003;33066;49.296;14.470;2022-07-10T03:58:58;4;4;
47081;PMS5003;33066;49.296;14.470;2022-07-10T04:01:23;4;4;
47081;PMS5003;33066;49.296;14.470;2022-07-10T04:03:48;4;4;
47081;PMS5003;33066;49.296;14.470;2022-07-10T04:06:13;5;5;
47081;PMS5003;33066;49.296;14.470;2022-07-10T04:08:38;4;4;
47081;PMS5003;33066;49.296;14.470;2022-07-10T04:11:03;5;5;
47081;PMS5003;33066;49.296;14.470;2022-07-10T04:13:29;4;4;
47081;PMS5003;33066;49.296;14.470;2022-07-10T04:15:54;7;5;
47081;PMS5003;33066;49.296;14.470;2022-07-10T04:18:19;5;5;
47081;PMS5003;33066;49.296;14.470;2022-07-10T04:20:45;9;9;
47081;PMS5003;33066;49.296;14.470;2022-07-10T04:23:10;4;3;
47081;PMS5003;33066;49.296;14.470;2022-07-10T04:25:35;3;3;
47081;PMS5003;33066;49.296;14.470;2022-07-10T04:28:00;5;5;
47081;PMS5003;33066;49.296;14.470;2022-07-10T04:30:26;5;5;
47081;PMS5003;33066;49.296;14.470;2022-07-10T04:32:51;5;5;
47081;PMS5003;33066;49.296;14.470;2022-07-10T04:35:16;6;5;
47081;PMS5003;33066;49.296;14.470;2022-07-10T04:37:41;7;4;
47081;PMS5003;33066;49.296;14.470;2022-07-10T04:40:08;5;5;
47081;PMS5003;33066;49.296;14.470;2022-07-10T04:42:31;6;6;
47081;PMS5003;33066;49.296;14.470;2022-07-10T04:44:56;5;5;
47081;PMS5003;33066;49.296;14.470;2022-07-10T04:47:22;5;5;
47081;PMS5003;33066;49.296;14.470;2022-07-10T04:49:47;8;6;
47081;PMS5003;33066;49.296;14.470;2022-07-10T04:52:13;4;3;
47081;PMS5003;33066;49.296;14.470;2022-07-10T04:54:38;7;6;
47081;PMS5003;33066;49.296;14.470;2022-07-10T04:57:04;6;5;
47081;PMS5003;33066;49.296;14.470;2022-07-10T04:59:30;6;6;
47081;PMS5003;33066;49.296;14.470;2022-07-10T05:01:54;6;5;
47081;PMS5003;33066;49.296;14.470;2022-07-10T05:04:19;4;4;
47081;PMS5003;33066;49.296;14.470;2022-07-10T05:06:45;3;3;
47081;PMS5003;33066;49.296;14.470;2022-07-10T05:09:10;7;7;
47081;PMS5003;33066;49.296;14.470;2022-07-10T05:11:35;5;5;
47081;PMS5003;33066;49.296;14.470;2022-07-10T05:13:59;6;6;
47081;PMS5003;33066;49.296;14.470;2022-07-10T05:16:24;4;4;
47081;PMS5003;33066;49.296;14.470;2022-07-10T05:18:50;7;7;
47081;PMS5003;33066;49.296;14.470;2022-07-10T05:21:15;7;4;
47081;PMS5003;33066;49.296;14.470;2022-07-10T05:23:41;5;5;
47081;PMS5003;33066;49.296;14.470;2022-07-10T05:26:05;5;4;
47081;PMS5003;33066;49.296;14.470;2022-07-10T05:28:30;6;6;
47081;PMS5003;33066;49.296;14.470;2022-07-10T05:30:55;4;4;
47081;PMS5003;33066;49.296;14.470;2022-07-10T05:33:21;5;5;
47081;PMS5003;33066;49.296;14.470;2022-07-10T05:35:46;5;5;
47081;PMS5003;33066;49.296;14.470;2022-07-10T05:38:11;6;5;
47081;PMS5003;33066;49.296;14.470;2022-07-10T05:40:37;6;6;
47081;PMS5003;33066;49.296;14.470;2022-07-10T05:43:01;6;6;
47081;PMS5003;33066;49.296;14.470;2022-07-10T05:45:26;6;6;
47081;PMS5003;33066;49.296;14.470;2022-07-10T05:47:53;7;7;
47081;PMS5003;33066;49.296;14.470;2022-07-10T05:50:18;6;6;
47081;PMS5003;33066;49.296;14.470;2022-07-10T05:52:42;4;3;
47081;PMS5003;33066;49.296;14.470;2022-07-10T05:55:08;3;3;
47081;PMS5003;33066;49.296;14.470;2022-07-10T05:57:32;4;4;
47081;PMS5003;33066;49.296;14.470;2022-07-10T05:59:58;4;4;
47081;PMS5003;33066;49.296;14.470;2022-07-10T06:02:23;1;1;
47081;PMS5003;33066;49.296;14.470;2022-07-10T06:04:48;4;4;
47081;PMS5003;33066;49.296;14.470;2022-07-10T06:07:14;2;2;
47081;PMS5003;33066;49.296;14.470;2022-07-10T06:09:38;5;4;
47081;PMS5003;33066;49.296;14.470;2022-07-10T06:12:05;3;3;
47081;PMS5003;33066;49.296;14.470;2022-07-10T06:14:28;2;2;
47081;PMS5003;33066;49.296;14.470;2022-07-10T06:16:53;2;2;
47081;PMS5003;33066;49.296;14.470;2022-07-10T06:19:19;3;3;
47081;PMS5003;33066;49.296;14.470;2022-07-10T06:21:44;2;2;
47081;PMS5003;33066;49.296;14.470;2022-07-10T06:24:09;2;2;
47081;PMS5003;33066;49.296;14.470;2022-07-10T06:26:34;2;2;
47081;PMS5003;33066;49.296;14.470;2022-07-10T06:29:00;2;2;
47081;PMS5003;33066;49.296;14.470;2022-07-10T06:31:24;5;3;
47081;PMS5003;33066;49.296;14.470;2022-07-10T06:33:51;4;2;
47081;PMS5003;33066;49.296;14.470;2022-07-10T06:36:14;3;3;
47081;PMS5003;33066;49.296;14.470;2022-07-10T06:38:40;3;3;
47081;PMS5003;33066;49.296;14.470;2022-07-10T06:41:05;3;3;
47081;PMS5003;33066;49.296;14.470;2022-07-10T06:43:30;4;3;
47081;PMS5003;33066;49.296;14.470;2022-07-10T06:45:55;4;4;
47081;PMS5003;33066;49.296;14.470;2022-07-10T06:48:20;3;3;
47081;PMS5003;33066;49.296;14.470;2022-07-10T06:50:46;2;2;
47081;PMS5003;33066;49.296;14.470;2022-07-10T06:53:10;2;2;
47081;PMS5003;33066;49.296;14.470;2022-07-10T06:55:36;3;2;
47081;PMS5003;33066;49.296;14.470;2022-07-10T06:58:01;4;4;
47081;PMS5003;33066;49.296;14.470;2022-07-10T07:00:26;3;3;
47081;PMS5003;33066;49.296;14.470;2022-07-10T07:02:51;5;4;
47081;PMS5003;33066;49.296;14.470;2022-07-10T07:05:16;3;3;
47081;PMS5003;33066;49.296;14.470;2022-07-10T07:07:41;4;4;
47081;PMS5003;33066;49.296;14.470;2022-07-10T07:10:07;2;2;
47081;PMS5003;33066;49.296;14.470;2022-07-10T07:12:31;4;4;
47081;PMS5003;33066;49.296;14.470;2022-07-10T07:14:56;3;3;
47081;PMS5003;33066;49.296;14.470;2022-07-10T07:17:22;3;3;
47081;PMS5003;33066;49.296;14.470;2022-07-10T07:19:47;6;4;
47081;PMS5003;33066;49.296;14.470;2022-07-10T07:22:12;3;3;
47081;PMS5003;33066;49.296;14.470;2022-07-10T07:24:37;3;3;
47081;PMS5003;33066;49.296;14.470;2022-07-10T07:27:02;4;2;
47081;PMS5003;33066;49.296;14.470;2022-07-10T07:29:29;3;3;
47081;PMS5003;33066;49.296;14.470;2022-07-10T07:31:52;4;4;
47081;PMS5003;33066;49.296;14.470;2022-07-10T07:34:18;3;3;
47081;PMS5003;33066;49.296;14.470;2022-07-10T07:36:42;6;2;
47081;PMS5003;33066;49.296;14.470;2022-07-10T07:39:08;3;3;
47081;PMS5003;33066;49.296;14.470;2022-07-10T07:41:33;2;2;
47081;PMS5003;33066;49.296;14.470;2022-07-10T07:43:58;3;3;
47081;PMS5003;33066;49.296;14.470;2022-07-10T07:46:23;2;2;
47081;PMS5003;33066;49.296;14.470;2022-07-10T07:48:48;2;2;
47081;PMS5003;33066;49.296;14.470;2022-07-10T07:51:14;5;5;
47081;PMS5003;33066;49.296;14.470;2022-07-10T07:53:39;2;2;
47081;PMS5003;33066;49.296;14.470;2022-07-10T07:56:04;3;3;
47081;PMS5003;33066;49.296;14.470;2022-07-10T07:58:29;2;2;
47081;PMS5003;33066;49.296;14.470;2022-07-10T08:00:54;3;3;
47081;PMS5003;33066;49.296;14.470;2022-07-10T08:03:19;3;3;
47081;PMS5003;33066;49.296;14.470;2022-07-10T08:05:44;3;3;
47081;PMS5003;33066;49.296;14.470;2022-07-10T08:08:12;3;3;
47081;PMS5003;33066;49.296;14.470;2022-07-10T08:10:35;3;2;
47081;PMS5003;33066;49.296;14.470;2022-07-10T08:13:00;5;2;
47081;PMS5003;33066;49.296;14.470;2022-07-10T08:15:25;3;3;
47081;PMS5003;33066;49.296;14.470;2022-07-10T08:17:51;2;2;
47081;PMS5003;33066;49.296;14.470;2022-07-10T08:20:15;2;2;
47081;PMS5003;33066;49.296;14.470;2022-07-10T08:22:40;3;2;
47081;PMS5003;33066;49.296;14.470;2022-07-10T08:25:06;2;2;
47081;PMS5003;33066;49.296;14.470;2022-07-10T08:27:30;4;3;
47081;PMS5003;33066;49.296;14.470;2022-07-10T08:29:56;3;2;
47081;PMS5003;33066;49.296;14.470;2022-07-10T08:32:21;2;2;
47081;PMS5003;33066;49.296;14.470;2022-07-10T08:34:46;1;1;
47081;PMS5003;33066;49.296;14.470;2022-07-10T08:37:11;2;2;
47081;PMS5003;33066;49.296;14.470;2022-07-10T08:39:36;2;2;
47081;PMS5003;33066;49.296;14.470;2022-07-10T08:42:03;2;2;
47081;PMS5003;33066;49.296;14.470;2022-07-10T08:44:26;2;2;
47081;PMS5003;33066;49.296;14.470;2022-07-10T08:46:51;2;2;
47081;PMS5003;33066;49.296;14.470;2022-07-10T08:49:17;1;1;
47081;PMS5003;33066;49.296;14.470;2022-07-10T08:51:47;0;0;
47081;PMS5003;33066;49.296;14.470;2022-07-10T08:54:07;1;1;
47081;PMS5003;33066;49.296;14.470;2022-07-10T08:56:32;1;1;
47081;PMS5003;33066;49.296;14.470;2022-07-10T08:58:57;4;2;
47081;PMS5003;33066;49.296;14.470;2022-07-10T09:01:22;2;2;
47081;PMS5003;33066;49.296;14.470;2022-07-10T09:03:47;2;2;
47081;PMS5003;33066;49.296;14.470;2022-07-10T09:06:12;2;2;
47081;PMS5003;33066;49.296;14.470;2022-07-10T09:08:37;1;1;
47081;PMS5003;33066;49.296;14.470;2022-07-10T09:13:28;2;2;
47081;PMS5003;33066;49.296;14.470;2022-07-10T09:15:53;4;2;
47081;PMS5003;33066;49.296;14.470;2022-07-10T09:18:18;3;3;
47081;PMS5003;33066;49.296;14.470;2022-07-10T09:20:43;1;1;
47081;PMS5003;33066;49.296;14.470;2022-07-10T09:23:14;2;2;
47081;PMS5003;33066;49.296;14.470;2022-07-10T09:25:33;3;3;
47081;PMS5003;33066;49.296;14.470;2022-07-10T09:27:58;1;1;
47081;PMS5003;33066;49.296;14.470;2022-07-10T09:32:48;2;2;
47081;PMS5003;33066;49.296;14.470;2022-07-10T09:35:14;0;0;
47081;PMS5003;33066;49.296;14.470;2022-07-10T09:37:39;1;1;
47081;PMS5003;33066;49.296;14.470;2022-07-10T09:40:04;1;1;
47081;PMS5003;33066;49.296;14.470;2022-07-10T09:42:30;3;2;
47081;PMS5003;33066;49.296;14.470;2022-07-10T09:47:21;2;2;
47081;PMS5003;33066;49.296;14.470;2022-07-10T09:49:44;3;2;
47081;PMS5003;33066;49.296;14.470;2022-07-10T09:52:09;2;2;
47081;PMS5003;33066;49.296;14.470;2022-07-10T09:54:34;1;1;
47081;PMS5003;33066;49.296;14.470;2022-07-10T09:56:59;4;3;
47081;PMS5003;33066;49.296;14.470;2022-07-10T09:59:24;2;2;
47081;PMS5003;33066;49.296;14.470;2022-07-10T10:01:50;1;1;
47081;PMS5003;33066;49.296;14.470;2022-07-10T10:04:15;1;1;
47081;PMS5003;33066;49.296;14.470;2022-07-10T10:06:40;2;2;
47081;PMS5003;33066;49.296;14.470;2022-07-10T10:09:06;1;1;
47081;PMS5003;33066;49.296;14.470;2022-07-10T10:11:30;3;2;
47081;PMS5003;33066;49.296;14.470;2022-07-10T10:13:55;5;3;
47081;PMS5003;33066;49.296;14.470;2022-07-10T10:16:20;2;2;
47081;PMS5003;33066;49.296;14.470;2022-07-10T10:18:46;4;2;
47081;PMS5003;33066;49.296;14.470;2022-07-10T10:21:10;1;1;
47081;PMS5003;33066;49.296;14.470;2022-07-10T10:23:35;1;1;
47081;PMS5003;33066;49.296;14.470;2022-07-10T10:26:00;2;2;
47081;PMS5003;33066;49.296;14.470;2022-07-10T10:28:26;1;1;
47081;PMS5003;33066;49.296;14.470;2022-07-10T10:30:51;1;1;
47081;PMS5003;33066;49.296;14.470;2022-07-10T10:35:41;2;2;
47081;PMS5003;33066;49.296;14.470;2022-07-10T10:38:06;1;1;
47081;PMS5003;33066;49.296;14.470;2022-07-10T10:40:32;3;3;
47081;PMS5003;33066;49.296;14.470;2022-07-10T10:42:56;1;1;
47081;PMS5003;33066;49.296;14.470;2022-07-10T10:45:22;1;1;
47081;PMS5003;33066;49.296;14.470;2022-07-10T10:50:12;0;0;
47081;PMS5003;33066;49.296;14.470;2022-07-10T10:52:36;0;0;
47081;PMS5003;33066;49.296;14.470;2022-07-10T10:55:04;2;2;
47081;PMS5003;33066;49.296;14.470;2022-07-10T10:59:52;1;1;
47081;PMS5003;33066;49.296;14.470;2022-07-10T11:02:20;1;1;
47081;PMS5003;33066;49.296;14.470;2022-07-10T11:04:42;0;0;
47081;PMS5003;33066;49.296;14.470;2022-07-10T11:07:07;1;1;
47081;PMS5003;33066;49.296;14.470;2022-07-10T11:09:32;1;1;
47081;PMS5003;33066;49.296;14.470;2022-07-10T11:11:58;0;0;
47081;PMS5003;33066;49.296;14.470;2022-07-10T11:14:22;1;0;
47081;PMS5003;33066;49.296;14.470;2022-07-10T11:16:47;1;1;
47081;PMS5003;33066;49.296;14.470;2022-07-10T11:19:12;0;0;
47081;PMS5003;33066;49.296;14.470;2022-07-10T11:21:41;2;2;
47081;PMS5003;33066;49.296;14.470;2022-07-10T11:24:03;1;1;
47081;PMS5003;33066;49.296;14.470;2022-07-10T11:26:29;1;1;
47081;PMS5003;33066;49.296;14.470;2022-07-10T11:28:53;1;1;
47081;PMS5003;33066;49.296;14.470;2022-07-10T11:31:18;2;1;
47081;PMS5003;33066;49.296;14.470;2022-07-10T11:33:44;1;1;
47081;PMS5003;33066;49.296;14.470;2022-07-10T11:36:09;1;1;
47081;PMS5003;33066;49.296;14.470;2022-07-10T11:38:33;1;1;
47081;PMS5003;33066;49.296;14.470;2022-07-10T11:40:58;1;1;
47081;PMS5003;33066;49.296;14.470;2022-07-10T11:43:23;0;0;
47081;PMS5003;33066;49.296;14.470;2022-07-10T11:45:53;1;1;
47081;PMS5003;33066;49.296;14.470;2022-07-10T11:48:18;0;0;
47081;PMS5003;33066;49.296;14.470;2022-07-10T11:50:38;0;0;
47081;PMS5003;33066;49.296;14.470;2022-07-10T11:53:03;1;1;
47081;PMS5003;33066;49.296;14.470;2022-07-10T11:55:28;1;1;
47081;PMS5003;33066;49.296;14.470;2022-07-10T11:57:54;1;1;
47081;PMS5003;33066;49.296;14.470;2022-07-10T12:00:21;1;0;
47081;PMS5003;33066;49.296;14.470;2022-07-10T12:02:44;0;0;
47081;PMS5003;33066;49.296;14.470;2022-07-10T12:05:09;0;0;
47081;PMS5003;33066;49.296;14.470;2022-07-10T12:07:34;0;0;
47081;PMS5003;33066;49.296;14.470;2022-07-10T12:09:59;0;0;
47081;PMS5003;33066;49.296;14.470;2022-07-10T12:12:24;0;0;
47081;PMS5003;33066;49.296;14.470;2022-07-10T12:14:50;0;0;
47081;PMS5003;33066;49.296;14.470;2022-07-10T12:17:15;1;1;
47081;PMS5003;33066;49.296;14.470;2022-07-10T12:19:40;1;1;
47081;PMS5003;33066;49.296;14.470;2022-07-10T12:22:05;0;0;
47081;PMS5003;33066;49.296;14.470;2022-07-10T12:24:30;1;1;
47081;PMS5003;33066;49.296;14.470;2022-07-10T12:26:55;2;2;
47081;PMS5003;33066;49.296;14.470;2022-07-10T12:29:21;1;1;
47081;PMS5003;33066;49.296;14.470;2022-07-10T12:31:46;2;2;
47081;PMS5003;33066;49.296;14.470;2022-07-10T12:34:10;1;0;
47081;PMS5003;33066;49.296;14.470;2022-07-10T12:36:41;2;2;
47081;PMS5003;33066;49.296;14.470;2022-07-10T12:39:00;1;1;
47081;PMS5003;33066;49.296;14.470;2022-07-10T12:41:25;1;1;
47081;PMS5003;33066;49.296;14.470;2022-07-10T12:43:50;1;1;
47081;PMS5003;33066;49.296;14.470;2022-07-10T12:46:16;1;1;
47081;PMS5003;33066;49.296;14.470;2022-07-10T12:48:41;0;0;
47081;PMS5003;33066;49.296;14.470;2022-07-10T12:53:30;1;1;
47081;PMS5003;33066;49.296;14.470;2022-07-10T12:55:55;1;1;
47081;PMS5003;33066;49.296;14.470;2022-07-10T12:58:20;0;0;
47081;PMS5003;33066;49.296;14.470;2022-07-10T13:00:46;1;1;
47081;PMS5003;33066;49.296;14.470;2022-07-10T13:03:11;1;1;
47081;PMS5003;33066;49.296;14.470;2022-07-10T13:05:36;1;1;
47081;PMS5003;33066;49.296;14.470;2022-07-10T13:08:04;0;0;
47081;PMS5003;33066;49.296;14.470;2022-07-10T13:10:26;1;1;
47081;PMS5003;33066;49.296;14.470;2022-07-10T13:12:51;0;0;
47081;PMS5003;33066;49.296;14.470;2022-07-10T13:15:16;0;0;
47081;PMS5003;33066;49.296;14.470;2022-07-10T13:17:43;1;1;
47081;PMS5003;33066;49.296;14.470;2022-07-10T13:20:06;0;0;
47081;PMS5003;33066;49.296;14.470;2022-07-10T13:22:31;0;0;
47081;PMS5003;33066;49.296;14.470;2022-07-10T13:24:56;1;1;
47081;PMS5003;33066;49.296;14.470;2022-07-10T13:27:21;2;1;
47081;PMS5003;33066;49.296;14.470;2022-07-10T13:29:46;0;0;
47081;PMS5003;33066;49.296;14.470;2022-07-10T13:32:11;1;1;
47081;PMS5003;33066;49.296;14.470;2022-07-10T13:34:36;0;0;
47081;PMS5003;33066;49.296;14.470;2022-07-10T13:37:01;0;0;
47081;PMS5003;33066;49.296;14.470;2022-07-10T13:39:26;0;0;
47081;PMS5003;33066;49.296;14.470;2022-07-10T13:41:51;1;1;
47081;PMS5003;33066;49.296;14.470;2022-07-10T13:44:16;4;0;
47081;PMS5003;33066;49.296;14.470;2022-07-10T13:46:41;0;0;
47081;PMS5003;33066;49.296;14.470;2022-07-10T13:49:06;1;0;
47081;PMS5003;33066;49.296;14.470;2022-07-10T13:51:31;0;0;
47081;PMS5003;33066;49.296;14.470;2022-07-10T13:53:56;0;0;
47081;PMS5003;33066;49.296;14.470;2022-07-10T13:56:21;1;1;
47081;PMS5003;33066;49.296;14.470;2022-07-10T13:58:46;1;1;
47081;PMS5003;33066;49.296;14.470;2022-07-10T14:01:11;0;0;
47081;PMS5003;33066;49.296;14.470;2022-07-10T14:03:37;0;0;
47081;PMS5003;33066;49.296;14.470;2022-07-10T14:06:02;0;0;
47081;PMS5003;33066;49.296;14.470;2022-07-10T14:08:27;0;0;
47081;PMS5003;33066;49.296;14.470;2022-07-10T14:10:52;1;1;
47081;PMS5003;33066;49.296;14.470;2022-07-10T14:13:17;0;0;
47081;PMS5003;33066;49.296;14.470;2022-07-10T14:15:42;0;0;
47081;PMS5003;33066;49.296;14.470;2022-07-10T14:18:07;1;1;
47081;PMS5003;33066;49.296;14.470;2022-07-10T14:20:32;0;0;
47081;PMS5003;33066;49.296;14.470;2022-07-10T14:22:57;0;0;
47081;PMS5003;33066;49.296;14.470;2022-07-10T14:25:22;0;0;
47081;PMS5003;33066;49.296;14.470;2022-07-10T14:27:47;0;0;
47081;PMS5003;33066;49.296;14.470;2022-07-10T14:30:12;0;0;
47081;PMS5003;33066;49.296;14.470;2022-07-10T14:32:37;0;0;
47081;PMS5003;33066;49.296;14.470;2022-07-10T14:35:02;1;1;
47081;PMS5003;33066;49.296;14.470;2022-07-10T14:37:27;1;1;
47081;PMS5003;33066;49.296;14.470;2022-07-10T14:39:52;2;1;
47081;PMS5003;33066;49.296;14.470;2022-07-10T14:42:17;0;0;
47081;PMS5003;33066;49.296;14.470;2022-07-10T14:44:42;3;2;
47081;PMS5003;33066;49.296;14.470;2022-07-10T14:47:07;0;0;
47081;PMS5003;33066;49.296;14.470;2022-07-10T14:49:32;0;0;
47081;PMS5003;33066;49.296;14.470;2022-07-10T14:51:57;1;1;
47081;PMS5003;33066;49.296;14.470;2022-07-10T14:54:22;0;0;
47081;PMS5003;33066;49.296;14.470;2022-07-10T14:56:48;1;1;
47081;PMS5003;33066;49.296;14.470;2022-07-10T14:59:12;0;0;
47081;PMS5003;33066;49.296;14.470;2022-07-10T15:01:37;0;0;
47081;PMS5003;33066;49.296;14.470;2022-07-10T15:04:03;1;1;
47081;PMS5003;33066;49.296;14.470;2022-07-10T15:06:28;3;1;
47081;PMS5003;33066;49.296;14.470;2022-07-10T15:08:53;1;1;
47081;PMS5003;33066;49.296;14.470;2022-07-10T15:11:18;0;0;
47081;PMS5003;33066;49.296;14.470;2022-07-10T15:13:43;0;0;
47081;PMS5003;33066;49.296;14.470;2022-07-10T15:16:08;0;0;
47081;PMS5003;33066;49.296;14.470;2022-07-10T15:18:33;2;2;
47081;PMS5003;33066;49.296;14.470;2022-07-10T15:20:58;1;1;
47081;PMS5003;33066;49.296;14.470;2022-07-10T15:23:23;0;0;
47081;PMS5003;33066;49.296;14.470;2022-07-10T15:25:48;0;0;
47081;PMS5003;33066;49.296;14.470;2022-07-10T15:28:13;1;1;
47081;PMS5003;33066;49.296;14.470;2022-07-10T15:30:38;0;0;
47081;PMS5003;33066;49.296;14.470;2022-07-10T15:33:04;0;0;
47081;PMS5003;33066;49.296;14.470;2022-07-10T15:35:28;1;1;
47081;PMS5003;33066;49.296;14.470;2022-07-10T15:37:54;2;0;
47081;PMS5003;33066;49.296;14.470;2022-07-10T15:40:19;0;0;
47081;PMS5003;33066;49.296;14.470;2022-07-10T15:42:44;0;0;
47081;PMS5003;33066;49.296;14.470;2022-07-10T15:45:09;0;0;
47081;PMS5003;33066;49.296;14.470;2022-07-10T15:47:34;0;0;
47081;PMS5003;33066;49.296;14.470;2022-07-10T15:49:59;0;0;
47081;PMS5003;33066;49.296;14.470;2022-07-10T15:52:24;0;0;
47081;PMS5003;33066;49.296;14.470;2022-07-10T15:54:49;2;0;
47081;PMS5003;33066;49.296;14.470;2022-07-10T15:57:14;0;0;
47081;PMS5003;33066;49.296;14.470;2022-07-10T15:59:39;1;0;
47081;PMS5003;33066;49.296;14.470;2022-07-10T16:02:04;0;0;
47081;PMS5003;33066;49.296;14.470;2022-07-10T16:04:29;1;1;
47081;PMS5003;33066;49.296;14.470;2022-07-10T16:06:54;1;1;
47081;PMS5003;33066;49.296;14.470;2022-07-10T16:09:19;1;1;
47081;PMS5003;33066;49.296;14.470;2022-07-10T16:11:45;0;0;
47081;PMS5003;33066;49.296;14.470;2022-07-10T16:14:10;3;2;
47081;PMS5003;33066;49.296;14.470;2022-07-10T16:16:35;0;0;
47081;PMS5003;33066;49.296;14.470;2022-07-10T16:19:00;2;1;
47081;PMS5003;33066;49.296;14.470;2022-07-10T16:21:25;2;2;
47081;PMS5003;33066;49.296;14.470;2022-07-10T16:23:50;0;0;
47081;PMS5003;33066;49.296;14.470;2022-07-10T16:26:16;2;1;
47081;PMS5003;33066;49.296;14.470;2022-07-10T16:28:41;0;0;
47081;PMS5003;33066;49.296;14.470;2022-07-10T16:31:06;0;0;
47081;PMS5003;33066;49.296;14.470;2022-07-10T16:33:31;0;0;
47081;PMS5003;33066;49.296;14.470;2022-07-10T16:35:56;2;1;
47081;PMS5003;33066;49.296;14.470;2022-07-10T16:38:21;0;0;